Time;durP1;ratioP1;P1;durP2;ratioP2;P2;SDS_P1;SDS_P2;PMS_P1;PMS_P2;Temp;Humidity;BMP_temperature;BMP_pressure;BME280_temperature;BME280_humidity;BME280_pressure;Samples;Min_cycle;Max_cycle;Signal;HPM_P1;HPM_P2
2022/04/09 00:00:43;;;;;;;10.95;4.03;;;;;;;;;;5031399;28;20190;-45
2022/04/09 00:03:09;;;;;;;9.50;3.28;;;;;;;;;;5031645;28;20206;-52
2022/04/09 00:05:35;;;;;;;12.02;2.90;;;;;;;;;;5031265;28;20203;-45
2022/04/09 00:08:01;;;;;;;11.63;3.47;;;;;;;;;;5031750;28;20667;-45
2022/04/09 00:10:27;;;;;;;9.32;3.10;;;;;;;;;;5031197;28;20484;-46
2022/04/09 00:12:53;;;;;;;7.38;2.97;;;;;;;;;;5031509;28;20195;-45
2022/04/09 00:15:20;;;;;;;21.92;3.40;;;;;;;;;;5031480;28;20179;-46
2022/04/09 00:17:47;;;;;;;4.10;2.75;;;;;;;;;;5031695;28;20554;-45
2022/04/09 00:20:15;;;;;;;5.00;3.47;;;;;;;;;;5031501;28;20339;-46
2022/04/09 00:22:41;;;;;;;7.70;3.40;;;;;;;;;;5030674;28;20194;-45
2022/04/09 00:25:08;;;;;;;9.05;3.10;;;;;;;;;;5031700;28;20180;-45
2022/04/09 00:27:34;;;;;;;10.55;2.95;;;;;;;;;;5030926;28;20180;-48
2022/04/09 00:30:00;;;;;;;14.65;3.70;;;;;;;;;;5031354;28;20658;-48
2022/04/09 00:32:26;;;;;;;8.60;3.30;;;;;;;;;;5031140;28;20203;-45
2022/04/09 00:34:52;;;;;;;5.47;3.40;;;;;;;;;;5031542;28;21005;-45
2022/04/09 00:37:18;;;;;;;12.73;3.50;;;;;;;;;;5031263;28;20414;-45
2022/04/09 00:39:44;;;;;;;8.60;3.67;;;;;;;;;;5043230;28;20496;-46
2022/04/09 00:42:18;;;;;;;10.33;3.43;;;;;;;;;;5043220;28;20922;-46
2022/04/09 00:44:44;;;;;;;5.82;3.95;;;;;;;;;;5031369;28;20926;-46
2022/04/09 00:47:10;;;;;;;10.73;3.35;;;;;;;;;;5031251;28;20246;-46
2022/04/09 00:49:37;;;;;;;8.73;3.70;;;;;;;;;;5031062;28;20184;-45
2022/04/09 00:52:03;;;;;;;7.50;4.18;;;;;;;;;;5031679;28;20257;-46
2022/04/09 00:54:31;;;;;;;7.90;3.85;;;;;;;;;;5034954;28;20211;-45
2022/04/09 00:56:59;;;;;;;13.30;3.67;;;;;;;;;;5034842;28;20714;-46
2022/04/09 00:59:26;;;;;;;14.45;5.03;;;;;;;;;;5034777;28;20644;-48
2022/04/09 01:01:54;;;;;;;17.67;4.32;;;;;;;;;;5034218;28;20229;-46
2022/04/09 01:04:21;;;;;;;8.63;3.85;;;;;;;;;;5034455;28;20183;-45
2022/04/09 01:06:48;;;;;;;8.55;3.63;;;;;;;;;;5033893;28;20203;-46
2022/04/09 01:09:13;;;;;;;9.57;4.00;;;;;;;;;;5034593;28;20246;-45
2022/04/09 01:11:40;;;;;;;10.50;4.70;;;;;;;;;;5034441;28;20722;-45
2022/04/09 01:14:06;;;;;;;12.15;3.95;;;;;;;;;;5034175;28;20426;-45
2022/04/09 01:16:32;;;;;;;17.67;4.10;;;;;;;;;;5034654;28;20171;-45
2022/04/09 01:18:59;;;;;;;9.30;3.60;;;;;;;;;;5034378;28;20176;-46
2022/04/09 01:21:25;;;;;;;10.18;3.33;;;;;;;;;;5033650;28;20422;-49
2022/04/09 01:23:51;;;;;;;13.95;3.90;;;;;;;;;;5033866;28;20213;-48
2022/04/09 01:26:17;;;;;;;17.67;3.67;;;;;;;;;;5034559;28;20675;-45
2022/04/09 01:28:44;;;;;;;16.27;4.50;;;;;;;;;;5033430;28;20426;-45
2022/04/09 01:31:10;;;;;;;16.70;3.72;;;;;;;;;;5034157;28;20191;-49
2022/04/09 01:33:36;;;;;;;18.63;5.70;;;;;;;;;;5033376;28;20199;-45
2022/04/09 01:36:02;;;;;;;23.02;6.53;;;;;;;;;;5034124;28;20709;-46
2022/04/09 01:38:28;;;;;;;14.35;4.75;;;;;;;;;;5035849;28;20160;-45
2022/04/09 01:40:54;;;;;;;9.33;4.67;;;;;;;;;;5036965;28;20226;-45
2022/04/09 01:43:21;;;;;;;13.68;5.55;;;;;;;;;;5033636;28;20476;-46
2022/04/09 01:45:47;;;;;;;14.85;4.45;;;;;;;;;;5030419;28;20179;-45
2022/04/09 01:48:13;;;;;;;18.55;5.18;;;;;;;;;;5033214;28;20187;-49
2022/04/09 01:50:39;;;;;;;13.13;4.97;;;;;;;;;;5033677;28;20394;-45
2022/04/09 01:53:06;;;;;;;15.98;5.00;;;;;;;;;;5033308;28;20895;-45
2022/04/09 01:55:33;;;;;;;15.43;5.30;;;;;;;;;;5033467;28;20172;-45
2022/04/09 01:57:59;;;;;;;16.85;5.28;;;;;;;;;;5033770;28;20175;-45
2022/04/09 02:00:25;;;;;;;15.13;5.00;;;;;;;;;;5033639;28;20171;-46
2022/04/09 02:02:51;;;;;;;11.68;4.85;;;;;;;;;;5032837;28;20176;-46
2022/04/09 02:05:18;;;;;;;12.30;5.00;;;;;;;;;;5033116;28;20643;-45
2022/04/09 02:07:44;;;;;;;12.13;4.68;;;;;;;;;;5033565;28;20195;-46
2022/04/09 02:10:11;;;;;;;12.75;4.32;;;;;;;;;;5033502;28;20170;-49
2022/04/09 02:12:37;;;;;;;17.48;4.60;;;;;;;;;;5033498;28;20237;-46
2022/04/09 02:15:04;;;;;;;9.77;5.72;;;;;;;;;;5033114;28;20179;-46
2022/04/09 02:17:30;;;;;;;13.55;4.80;;;;;;;;;;5033645;28;20258;-45
2022/04/09 02:19:56;;;;;;;13.47;4.80;;;;;;;;;;5033015;28;20275;-45
2022/04/09 02:22:23;;;;;;;11.52;4.07;;;;;;;;;;5033384;28;20406;-46
2022/04/09 02:24:52;;;;;;;15.50;4.53;;;;;;;;;;5032994;28;20275;-45
2022/04/09 02:27:18;;;;;;;12.43;4.97;;;;;;;;;;5033105;28;20667;-45
2022/04/09 02:29:46;;;;;;;8.47;4.20;;;;;;;;;;5033117;28;20167;-45
2022/04/09 02:32:13;;;;;;;14.40;3.97;;;;;;;;;;5032846;28;20493;-46
2022/04/09 02:34:39;;;;;;;9.05;4.63;;;;;;;;;;5032401;28;20710;-45
2022/04/09 02:37:05;;;;;;;11.60;4.80;;;;;;;;;;5032763;28;20176;-46
2022/04/09 02:39:32;;;;;;;14.07;4.10;;;;;;;;;;5032314;28;20429;-45
2022/04/09 02:41:58;;;;;;;11.00;4.80;;;;;;;;;;5032833;28;20178;-45
2022/04/09 02:44:24;;;;;;;12.83;5.70;;;;;;;;;;5032790;28;20192;-45
2022/04/09 02:46:50;;;;;;;15.60;4.95;;;;;;;;;;5032946;28;20819;-46
2022/04/09 02:49:17;;;;;;;10.50;4.80;;;;;;;;;;5031981;28;20660;-45
2022/04/09 02:51:43;;;;;;;18.15;5.18;;;;;;;;;;5032683;28;20204;-49
2022/04/09 02:54:15;;;;;;;10.82;5.47;;;;;;;;;;5032262;28;20546;-48
2022/04/09 02:56:42;;;;;;;16.77;5.60;;;;;;;;;;5032793;28;20218;-46
2022/04/09 02:59:08;;;;;;;11.43;4.40;;;;;;;;;;5031630;28;20171;-46
2022/04/09 03:01:34;;;;;;;10.45;5.03;;;;;;;;;;5032430;28;20199;-46
2022/04/09 03:04:00;;;;;;;11.00;4.67;;;;;;;;;;5032357;28;20266;-46
2022/04/09 03:06:26;;;;;;;12.40;5.70;;;;;;;;;;5032560;28;20394;-45
2022/04/09 03:08:52;;;;;;;9.77;4.37;;;;;;;;;;5032312;28;20717;-48
2022/04/09 03:11:18;;;;;;;17.67;5.77;;;;;;;;;;5032227;28;20446;-49
2022/04/09 03:13:44;;;;;;;14.00;4.10;;;;;;;;;;5032096;28;20466;-45
2022/04/09 03:16:11;;;;;;;18.33;7.20;;;;;;;;;;5031674;28;20390;-45
2022/04/09 03:18:37;;;;;;;9.20;4.30;;;;;;;;;;5032245;28;20410;-45
2022/04/09 03:21:03;;;;;;;8.97;4.20;;;;;;;;;;5032243;28;20240;-46
2022/04/09 03:23:29;;;;;;;14.65;4.65;;;;;;;;;;5032055;28;20465;-46
2022/04/09 03:25:55;;;;;;;11.03;4.27;;;;;;;;;;5032449;28;20675;-46
2022/04/09 03:28:20;;;;;;;10.33;4.93;;;;;;;;;;5031985;28;20785;-46
2022/04/09 03:30:46;;;;;;;17.57;5.97;;;;;;;;;;5031948;28;20448;-46
2022/04/09 03:33:12;;;;;;;10.87;4.60;;;;;;;;;;5031818;28;20434;-45
2022/04/09 03:35:38;;;;;;;16.27;4.57;;;;;;;;;;5031926;28;20930;-46
2022/04/09 03:38:04;;;;;;;9.65;4.50;;;;;;;;;;5031928;28;20457;-46
2022/04/09 03:40:30;;;;;;;11.15;4.22;;;;;;;;;;5046759;28;20175;-47
2022/04/09 03:42:57;;;;;;;14.67;3.83;;;;;;;;;;5032361;28;20187;-49
2022/04/09 03:45:24;;;;;;;17.75;4.78;;;;;;;;;;5031614;28;20406;-45
2022/04/09 03:47:49;;;;;;;14.35;3.38;;;;;;;;;;5032005;28;20167;-45
2022/04/09 03:50:17;;;;;;;12.20;4.10;;;;;;;;;;5031540;28;20241;-46
2022/04/09 03:52:44;;;;;;;12.85;4.55;;;;;;;;;;5030724;28;20974;-45
2022/04/09 03:55:10;;;;;;;6.40;3.30;;;;;;;;;;5032016;28;20167;-45
2022/04/09 03:57:36;;;;;;;22.07;5.70;;;;;;;;;;5031639;28;20596;-46
2022/04/09 04:00:03;;;;;;;16.55;4.82;;;;;;;;;;5031430;28;20399;-48
2022/04/09 04:02:29;;;;;;;17.23;4.07;;;;;;;;;;5031406;28;20172;-46
2022/04/09 04:04:55;;;;;;;5.43;3.20;;;;;;;;;;5031795;28;20199;-46
2022/04/09 04:07:22;;;;;;;15.27;3.70;;;;;;;;;;5031581;28;20414;-46
2022/04/09 04:09:48;;;;;;;16.77;3.72;;;;;;;;;;5031589;28;20409;-45
2022/04/09 04:12:15;;;;;;;17.10;4.25;;;;;;;;;;5031255;28;20585;-50
2022/04/09 04:14:41;;;;;;;13.48;4.45;;;;;;;;;;5031550;28;20758;-46
2022/04/09 04:17:07;;;;;;;14.83;4.10;;;;;;;;;;5031500;28;20247;-47
2022/04/09 04:19:33;;;;;;;12.20;3.73;;;;;;;;;;5031641;28;20398;-49
2022/04/09 04:21:59;;;;;;;24.53;5.30;;;;;;;;;;5031135;28;20525;-45
2022/04/09 04:24:25;;;;;;;17.00;4.23;;;;;;;;;;5030250;28;20465;-45
2022/04/09 04:26:51;;;;;;;12.13;3.97;;;;;;;;;;5033220;28;20418;-46
2022/04/09 04:29:17;;;;;;;14.83;3.93;;;;;;;;;;5035147;28;20411;-46
2022/04/09 04:31:43;;;;;;;11.75;4.10;;;;;;;;;;5034670;28;20457;-46
2022/04/09 04:34:09;;;;;;;10.20;4.23;;;;;;;;;;5035306;28;20241;-46
2022/04/09 04:36:35;;;;;;;19.73;5.43;;;;;;;;;;5035512;28;20398;-46
2022/04/09 04:39:00;;;;;;;13.37;4.50;;;;;;;;;;5040248;28;20401;-46
2022/04/09 04:41:28;;;;;;;13.57;4.70;;;;;;;;;;5035249;28;20454;-48
2022/04/09 04:43:54;;;;;;;13.93;4.28;;;;;;;;;;5035184;28;20433;-46
2022/04/09 04:46:20;;;;;;;13.50;4.35;;;;;;;;;;5034972;28;20610;-45
2022/04/09 04:48:47;;;;;;;10.87;3.67;;;;;;;;;;5035289;28;20178;-46
2022/04/09 04:51:13;;;;;;;12.48;4.25;;;;;;;;;;5034533;28;20453;-45
2022/04/09 04:53:39;;;;;;;8.82;3.35;;;;;;;;;;5035103;28;20189;-45
2022/04/09 04:56:05;;;;;;;15.97;4.90;;;;;;;;;;5034638;28;20183;-49
2022/04/09 04:58:31;;;;;;;8.60;3.40;;;;;;;;;;5034218;28;20417;-45
2022/04/09 05:00:57;;;;;;;8.37;3.60;;;;;;;;;;5034875;28;20398;-45
2022/04/09 05:03:23;;;;;;;16.42;4.30;;;;;;;;;;5034606;28;20441;-46
2022/04/09 05:05:49;;;;;;;15.43;4.37;;;;;;;;;;5034905;28;20164;-46
2022/04/09 05:08:15;;;;;;;17.27;4.20;;;;;;;;;;5035118;28;20853;-46
2022/04/09 05:10:40;;;;;;;15.00;4.33;;;;;;;;;;5034110;28;20780;-47
2022/04/09 05:13:07;;;;;;;8.30;4.90;;;;;;;;;;5034640;28;20456;-48
2022/04/09 05:15:33;;;;;;;11.85;4.18;;;;;;;;;;5034462;28;20501;-48
2022/04/09 05:18:01;;;;;;;14.97;4.13;;;;;;;;;;5034784;28;20750;-45
2022/04/09 05:20:27;;;;;;;14.82;4.22;;;;;;;;;;5034174;28;20438;-46
2022/04/09 05:22:53;;;;;;;20.03;4.23;;;;;;;;;;5034548;28;20645;-50
2022/04/09 05:25:19;;;;;;;15.40;4.20;;;;;;;;;;5034205;28;20425;-45
2022/04/09 05:27:46;;;;;;;11.05;3.70;;;;;;;;;;5034508;28;20425;-47
2022/04/09 05:30:12;;;;;;;11.20;3.65;;;;;;;;;;5034037;28;20183;-48
2022/04/09 05:32:39;;;;;;;18.95;4.78;;;;;;;;;;5034465;28;20207;-48
2022/04/09 05:35:06;;;;;;;8.40;3.70;;;;;;;;;;5034086;28;20195;-46
2022/04/09 05:37:32;;;;;;;16.40;4.97;;;;;;;;;;5033889;28;20172;-46
2022/04/09 05:39:58;;;;;;;13.97;4.60;;;;;;;;;;5034725;28;20172;-46
2022/04/09 05:42:25;;;;;;;15.43;4.78;;;;;;;;;;5034287;28;20729;-46
2022/04/09 05:44:52;;;;;;;19.48;4.50;;;;;;;;;;5033925;28;20191;-45
2022/04/09 05:47:18;;;;;;;7.63;4.05;;;;;;;;;;5034376;28;20167;-45
2022/04/09 05:49:44;;;;;;;9.27;3.85;;;;;;;;;;5033465;28;20187;-46
2022/04/09 05:52:10;;;;;;;10.90;4.67;;;;;;;;;;5033975;28;20539;-45
2022/04/09 05:54:36;;;;;;;12.43;4.40;;;;;;;;;;5032845;28;20434;-45
2022/04/09 05:57:02;;;;;;;19.67;5.22;;;;;;;;;;5033373;28;21067;-47
2022/04/09 05:59:30;;;;;;;15.48;4.72;;;;;;;;;;5032904;28;20250;-47
2022/04/09 06:01:56;;;;;;;12.23;4.85;;;;;;;;;;5032658;28;20590;-47
2022/04/09 06:04:22;;;;;;;7.47;3.92;;;;;;;;;;5033047;28;20664;-47
2022/04/09 06:06:49;;;;;;;13.32;3.40;;;;;;;;;;5032602;28;20176;-47
2022/04/09 06:09:15;;;;;;;9.48;3.45;;;;;;;;;;5032439;28;20175;-46
2022/04/09 06:11:42;;;;;;;19.40;4.00;;;;;;;;;;5032813;28;20199;-46
2022/04/09 06:14:08;;;;;;;14.43;3.58;;;;;;;;;;5032963;28;20199;-46
2022/04/09 06:16:38;;;;;;;12.00;3.45;;;;;;;;;;5033514;28;20636;-47
2022/04/09 06:19:07;;;;;;;10.40;3.10;;;;;;;;;;5033139;28;20180;-46
2022/04/09 06:21:33;;;;;;;12.07;3.67;;;;;;;;;;5033229;28;20180;-48
2022/04/09 06:24:03;;;;;;;9.68;3.95;;;;;;;;;;5033364;28;20199;-48
2022/04/09 06:26:29;;;;;;;15.10;3.33;;;;;;;;;;5033414;28;20580;-46
2022/04/09 06:28:55;;;;;;;19.77;4.63;;;;;;;;;;5032675;28;20179;-46
2022/04/09 06:31:22;;;;;;;10.38;3.50;;;;;;;;;;5032581;28;20457;-47
2022/04/09 06:33:48;;;;;;;18.20;3.88;;;;;;;;;;5032777;28;20187;-48
2022/04/09 06:36:15;;;;;;;10.23;3.67;;;;;;;;;;5033290;28;20179;-46
2022/04/09 06:38:41;;;;;;;12.15;3.80;;;;;;;;;;5035842;28;20417;-47
2022/04/09 06:41:07;;;;;;;7.80;3.70;;;;;;;;;;5041975;28;20602;-47
2022/04/09 06:43:33;;;;;;;11.87;3.90;;;;;;;;;;5033136;28;20434;-47
2022/04/09 06:45:59;;;;;;;13.20;3.70;;;;;;;;;;5033092;28;20498;-46
2022/04/09 06:48:25;;;;;;;8.70;3.60;;;;;;;;;;5032522;28;20624;-48
2022/04/09 06:50:51;;;;;;;7.93;3.25;;;;;;;;;;5032493;28;20484;-47
2022/04/09 06:53:17;;;;;;;6.70;3.67;;;;;;;;;;5032512;28;20203;-46
2022/04/09 06:55:43;;;;;;;14.83;3.60;;;;;;;;;;5032517;28;20421;-46
2022/04/09 06:58:09;;;;;;;13.73;4.60;;;;;;;;;;5032370;28;20414;-47
2022/04/09 07:00:35;;;;;;;9.25;4.32;;;;;;;;;;5031728;28;20186;-47
2022/04/09 07:03:01;;;;;;;12.70;4.40;;;;;;;;;;5032140;28;20613;-45
2022/04/09 07:05:27;;;;;;;11.82;4.60;;;;;;;;;;5031924;28;20167;-47
2022/04/09 07:07:53;;;;;;;13.80;4.28;;;;;;;;;;5032321;28;20169;-46
2022/04/09 07:10:20;;;;;;;13.50;4.45;;;;;;;;;;5031915;28;20168;-47
2022/04/09 07:12:46;;;;;;;9.20;3.70;;;;;;;;;;5031954;28;20229;-45
2022/04/09 07:15:12;;;;;;;9.97;3.60;;;;;;;;;;5032163;28;20416;-48
2022/04/09 07:17:38;;;;;;;11.13;4.90;;;;;;;;;;5032442;28;20412;-46
2022/04/09 07:20:07;;;;;;;14.83;4.43;;;;;;;;;;5032529;28;20438;-45
2022/04/09 07:22:35;;;;;;;7.50;3.53;;;;;;;;;;5032291;28;20416;-47
2022/04/09 07:25:02;;;;;;;12.37;3.67;;;;;;;;;;5032645;28;20477;-47
2022/04/09 07:27:54;;;;;;;16.93;4.50;;;;;;;;;;5032250;28;20419;-46
2022/04/09 07:30:21;;;;;;;8.27;3.47;;;;;;;;;;5031804;28;20569;-47
2022/04/09 07:32:47;;;;;;;13.47;3.93;;;;;;;;;;5032160;28;20455;-46
2022/04/09 07:35:14;;;;;;;15.50;4.00;;;;;;;;;;5032442;28;20499;-47
2022/04/09 07:37:44;;;;;;;10.07;3.70;;;;;;;;;;5031468;28;20417;-47
2022/04/09 07:40:11;;;;;;;8.23;3.63;;;;;;;;;;5031999;28;20557;-47
2022/04/09 07:42:41;;;;;;;13.70;4.40;;;;;;;;;;5030685;28;20420;-47
2022/04/09 07:45:07;;;;;;;11.23;3.40;;;;;;;;;;5032445;28;20411;-47
2022/04/09 07:47:33;;;;;;;9.90;3.93;;;;;;;;;;5031922;28;20419;-47
2022/04/09 07:50:00;;;;;;;9.03;3.23;;;;;;;;;;5032143;28;20430;-47
2022/04/09 07:52:27;;;;;;;10.37;3.80;;;;;;;;;;5032009;28;20468;-47
2022/04/09 07:54:57;;;;;;;11.47;3.27;;;;;;;;;;5032577;28;20936;-46
2022/04/09 07:57:23;;;;;;;7.00;2.87;;;;;;;;;;5032160;28;20509;-47
2022/04/09 07:59:49;;;;;;;9.37;3.73;;;;;;;;;;5032040;28;20772;-48
2022/04/09 08:02:15;;;;;;;9.80;3.27;;;;;;;;;;5031618;28;20428;-46
2022/04/09 08:04:41;;;;;;;17.93;3.63;;;;;;;;;;5030022;28;20966;-47
2022/04/09 08:07:07;;;;;;;13.47;4.10;;;;;;;;;;5030215;28;20485;-47
2022/04/09 08:09:33;;;;;;;15.53;4.60;;;;;;;;;;5031871;28;20416;-47
2022/04/09 08:11:59;;;;;;;11.90;4.13;;;;;;;;;;5030279;28;20462;-46
2022/04/09 08:14:25;;;;;;;10.63;3.73;;;;;;;;;;5032010;28;20470;-47
2022/04/09 08:16:51;;;;;;;13.30;4.00;;;;;;;;;;5031659;28;20812;-47
2022/04/09 08:19:18;;;;;;;10.55;4.97;;;;;;;;;;5031819;28;20430;-47
2022/04/09 08:21:44;;;;;;;17.93;5.43;;;;;;;;;;5031545;28;20540;-46
2022/04/09 08:24:11;;;;;;;10.47;6.07;;;;;;;;;;5031683;28;20423;-46
2022/04/09 08:26:37;;;;;;;14.82;6.60;;;;;;;;;;5031554;28;20831;-50
2022/04/09 08:29:04;;;;;;;15.93;6.27;;;;;;;;;;5031753;28;20276;-47
2022/04/09 08:31:30;;;;;;;8.40;4.80;;;;;;;;;;5030603;28;20450;-47
2022/04/09 08:33:57;;;;;;;11.80;4.50;;;;;;;;;;5032644;28;21021;-48
2022/04/09 08:36:23;;;;;;;10.43;4.70;;;;;;;;;;5033851;28;20422;-48
2022/04/09 08:38:49;;;;;;;13.30;3.90;;;;;;;;;;5038157;28;20410;-48
2022/04/09 08:41:15;;;;;;;8.20;3.30;;;;;;;;;;5036420;28;20444;-50
2022/04/09 08:43:42;;;;;;;9.53;3.90;;;;;;;;;;5045159;28;20825;-47
2022/04/09 08:46:08;;;;;;;6.20;3.40;;;;;;;;;;5031158;28;20429;-47
2022/04/09 08:48:34;;;;;;;9.83;3.87;;;;;;;;;;5031614;28;20398;-47
2022/04/09 08:51:00;;;;;;;13.20;4.30;;;;;;;;;;5032519;28;20434;-47
2022/04/09 08:53:26;;;;;;;10.70;4.40;;;;;;;;;;5031428;28;20513;-46
2022/04/09 08:55:53;;;;;;;10.63;5.60;;;;;;;;;;5045718;28;20419;-48
2022/04/09 08:58:19;;;;;;;11.57;5.47;;;;;;;;;;5031305;28;20436;-49
2022/04/09 09:00:46;;;;;;;10.53;5.10;;;;;;;;;;5031177;28;20490;-47
2022/04/09 09:03:14;;;;;;;10.70;5.17;;;;;;;;;;5031197;28;20432;-48
2022/04/09 09:05:45;;;;;;;9.70;4.97;;;;;;;;;;5031323;28;20409;-47
2022/04/09 09:08:12;;;;;;;16.07;5.63;;;;;;;;;;5033164;28;20417;-47
2022/04/09 09:10:38;;;;;;;13.13;3.80;;;;;;;;;;5031183;28;20807;-47
2022/04/09 09:13:06;;;;;;;8.07;4.00;;;;;;;;;;5031782;28;20457;-48
2022/04/09 09:15:52;;;;;;;6.87;3.60;;;;;;;;;;5039849;28;20437;-48
2022/04/09 09:18:27;;;;;;;9.17;4.00;;;;;;;;;;5055235;28;20443;-47
2022/04/09 09:20:54;;;;;;;7.23;4.10;;;;;;;;;;5038838;28;20386;-49
2022/04/09 09:23:24;;;;;;;7.70;3.20;;;;;;;;;;5034447;28;20473;-47
2022/04/09 09:25:54;;;;;;;11.93;5.03;;;;;;;;;;5035131;28;20461;-47
2022/04/09 09:28:27;;;;;;;12.00;3.50;;;;;;;;;;5035452;28;20418;-47
2022/04/09 09:30:54;;;;;;;11.67;4.03;;;;;;;;;;5035097;28;20380;-48
2022/04/09 09:33:20;;;;;;;12.67;4.00;;;;;;;;;;5035267;28;20475;-46
2022/04/09 09:35:48;;;;;;;6.10;3.53;;;;;;;;;;5035353;28;20383;-48
2022/04/09 09:38:17;;;;;;;8.07;2.90;;;;;;;;;;5034925;28;20469;-47
2022/04/09 09:40:43;;;;;;;8.00;3.50;;;;;;;;;;5037422;28;20943;-47
2022/04/09 09:43:19;;;;;;;11.53;2.63;;;;;;;;;;5054419;28;20435;-47
2022/04/09 09:45:46;;;;;;;6.57;2.37;;;;;;;;;;5054404;28;20432;-46
2022/04/09 09:48:21;;;;;;;6.80;2.23;;;;;;;;;;5054557;28;20505;-46
2022/04/09 09:50:47;;;;;;;4.77;2.00;;;;;;;;;;5034755;28;20434;-47
2022/04/09 09:53:14;;;;;;;2.70;2.10;;;;;;;;;;5031851;28;20466;-47
2022/04/09 09:55:46;;;;;;;3.03;1.80;;;;;;;;;;5034592;28;20403;-48
2022/04/09 09:58:16;;;;;;;4.13;1.37;;;;;;;;;;5034351;28;20468;-46
2022/04/09 10:00:43;;;;;;;1.90;1.23;;;;;;;;;;5034452;28;20398;-48
2022/04/09 10:03:13;;;;;;;4.03;1.50;;;;;;;;;;5034265;28;20436;-47
2022/04/09 10:05:39;;;;;;;4.57;1.90;;;;;;;;;;5031247;28;20448;-46
2022/04/09 10:08:06;;;;;;;4.27;2.20;;;;;;;;;;5026651;28;20418;-47
2022/04/09 10:10:34;;;;;;;4.57;2.30;;;;;;;;;;5034039;28;20441;-46
2022/04/09 10:13:02;;;;;;;3.20;2.13;;;;;;;;;;5033731;28;20459;-46
2022/04/09 10:15:29;;;;;;;1.80;1.60;;;;;;;;;;5034250;28;20398;-47
2022/04/09 10:17:58;;;;;;;2.40;1.30;;;;;;;;;;5034235;28;20448;-46
2022/04/09 10:20:28;;;;;;;1.63;1.20;;;;;;;;;;5034158;28;20769;-47
2022/04/09 10:22:58;;;;;;;1.67;1.20;;;;;;;;;;5034092;28;20401;-48
2022/04/09 10:25:29;;;;;;;1.10;1.00;;;;;;;;;;5033957;28;20402;-48
2022/04/09 10:28:04;;;;;;;1.20;1.10;;;;;;;;;;5033539;28;20386;-47
2022/04/09 10:30:39;;;;;;;3.53;1.30;;;;;;;;;;5033866;28;20429;-49
2022/04/09 10:33:20;;;;;;;2.60;1.77;;;;;;;;;;5031112;28;20440;-47
2022/04/09 10:35:47;;;;;;;2.17;1.60;;;;;;;;;;5014534;28;20387;-48
2022/04/09 10:38:13;;;;;;;2.30;1.77;;;;;;;;;;5014187;28;20388;-47
2022/04/09 10:40:57;;;;;;;6.70;2.13;;;;;;;;;;5018179;28;20370;-48
2022/04/09 10:43:26;;;;;;;3.40;2.27;;;;;;;;;;5054100;28;20417;-47
2022/04/09 10:46:05;;;;;;;8.73;1.90;;;;;;;;;;5053808;28;20424;-47
2022/04/09 10:48:34;;;;;;;3.20;2.30;;;;;;;;;;5054058;28;20375;-47
2022/04/09 10:51:05;;;;;;;3.63;2.57;;;;;;;;;;5014148;28;20421;-47
2022/04/09 10:53:31;;;;;;;4.97;1.97;;;;;;;;;;5014091;28;20420;-47
2022/04/09 10:56:26;;;;;;;4.27;2.40;;;;;;;;;;5013317;28;20376;-47
2022/04/09 10:59:13;;;;;;;3.60;2.20;;;;;;;;;;5023663;28;20427;-49
2022/04/09 11:01:51;;;;;;;10.30;2.50;;;;;;;;;;5033264;28;20528;-48
2022/04/09 11:04:26;;;;;;;4.40;2.87;;;;;;;;;;5031877;28;20938;-47
2022/04/09 11:07:05;;;;;;;6.40;2.10;;;;;;;;;;5032892;28;20413;-48
2022/04/09 11:09:54;;;;;;;4.40;2.40;;;;;;;;;;5032648;28;20415;-48
2022/04/09 11:12:21;;;;;;;4.37;2.70;;;;;;;;;;5032369;28;20441;-48
2022/04/09 11:14:56;;;;;;;6.80;3.03;;;;;;;;;;5023889;28;20410;-47
2022/04/09 11:17:32;;;;;;;12.50;2.73;;;;;;;;;;5013476;28;20403;-47
2022/04/09 11:20:06;;;;;;;4.20;2.20;;;;;;;;;;5013398;28;20405;-49
2022/04/09 11:22:52;;;;;;;3.93;2.30;;;;;;;;;;5012759;28;20385;-47
2022/04/09 11:25:23;;;;;;;6.57;2.00;;;;;;;;;;5026898;28;20415;-47
2022/04/09 11:27:49;;;;;;;6.53;1.80;;;;;;;;;;5032742;28;20468;-47
2022/04/09 11:30:15;;;;;;;2.70;1.40;;;;;;;;;;5032273;28;20406;-47
2022/04/09 11:32:42;;;;;;;1.53;1.10;;;;;;;;;;5032448;28;20804;-46
2022/04/09 11:35:10;;;;;;;3.73;1.43;;;;;;;;;;5032403;28;20445;-46
2022/04/09 11:37:41;;;;;;;3.60;1.60;;;;;;;;;;5032071;28;20398;-47
2022/04/09 11:40:08;;;;;;;3.53;1.30;;;;;;;;;;5031974;28;20682;-46
2022/04/09 11:42:44;;;;;;;1.50;1.40;;;;;;;;;;5050106;28;20175;-46
2022/04/09 11:45:24;;;;;;;2.92;1.50;;;;;;;;;;5052065;28;20166;-46
2022/04/09 11:47:51;;;;;;;2.45;1.80;;;;;;;;;;5052100;28;20220;-47
2022/04/09 11:50:18;;;;;;;2.30;1.10;;;;;;;;;;5051836;28;20182;-46
2022/04/09 11:52:44;;;;;;;1.40;1.30;;;;;;;;;;5051678;28;20205;-46
2022/04/09 11:55:11;;;;;;;5.43;1.40;;;;;;;;;;5051825;28;20166;-47
2022/04/09 11:57:38;;;;;;;1.90;1.40;;;;;;;;;;5043871;28;20210;-46
2022/04/09 12:00:05;;;;;;;4.35;2.00;;;;;;;;;;5030944;28;20183;-47
2022/04/09 12:02:31;;;;;;;2.05;1.50;;;;;;;;;;5012773;28;20179;-47
2022/04/09 12:04:57;;;;;;;2.90;1.63;;;;;;;;;;5012199;28;20243;-46
2022/04/09 12:07:28;;;;;;;1.63;1.40;;;;;;;;;;5012200;28;20256;-47
2022/04/09 12:09:54;;;;;;;2.60;1.50;;;;;;;;;;5012229;28;20438;-49
2022/04/09 12:12:20;;;;;;;2.73;1.43;;;;;;;;;;5023190;28;20984;-47
2022/04/09 12:14:53;;;;;;;1.53;1.43;;;;;;;;;;5032480;28;20464;-47
2022/04/09 12:17:22;;;;;;;4.73;1.60;;;;;;;;;;5032672;28;20973;-47
2022/04/09 12:19:49;;;;;;;6.10;1.90;;;;;;;;;;5031931;28;20410;-48
2022/04/09 12:22:18;;;;;;;3.40;2.10;;;;;;;;;;5032254;28;20417;-48
2022/04/09 12:24:47;;;;;;;3.03;1.73;;;;;;;;;;5032243;28;20433;-48
2022/04/09 12:27:13;;;;;;;6.60;2.20;;;;;;;;;;5032005;28;20388;-51
2022/04/09 12:29:47;;;;;;;2.17;1.97;;;;;;;;;;5032395;28;20450;-47
2022/04/09 12:32:14;;;;;;;1.97;1.40;;;;;;;;;;5032024;28;20439;-47
2022/04/09 12:34:59;;;;;;;2.23;1.70;;;;;;;;;;5032479;28;20411;-47
2022/04/09 12:37:26;;;;;;;2.60;1.60;;;;;;;;;;5032204;28;20405;-47
2022/04/09 12:39:53;;;;;;;1.70;1.60;;;;;;;;;;5032030;28;20865;-48
2022/04/09 12:42:31;;;;;;;2.23;1.87;;;;;;;;;;5047974;28;20429;-48
2022/04/09 12:45:10;;;;;;;3.03;1.80;;;;;;;;;;5051550;28;20429;-48
2022/04/09 12:47:37;;;;;;;2.43;1.60;;;;;;;;;;5054162;28;20402;-48
2022/04/09 12:50:04;;;;;;;2.00;1.30;;;;;;;;;;5055755;28;20454;-49
2022/04/09 12:52:30;;;;;;;2.23;1.43;;;;;;;;;;5055911;28;20542;-48
2022/04/09 12:54:57;;;;;;;2.13;1.13;;;;;;;;;;5055970;28;20453;-50
2022/04/09 12:57:23;;;;;;;5.33;2.13;;;;;;;;;;5055738;28;20444;-49
2022/04/09 12:59:49;;;;;;;3.20;1.27;;;;;;;;;;5037456;28;20406;-47
2022/04/09 13:02:15;;;;;;;2.97;1.43;;;;;;;;;;5035057;28;20414;-47
2022/04/09 13:04:41;;;;;;;1.63;1.53;;;;;;;;;;5034903;28;20545;-49
2022/04/09 13:07:07;;;;;;;1.87;1.50;;;;;;;;;;5034818;28;20429;-50
2022/04/09 13:09:33;;;;;;;2.43;1.60;;;;;;;;;;5033582;28;20394;-46
2022/04/09 13:11:59;;;;;;;3.00;1.60;;;;;;;;;;5034210;28;20431;-46
2022/04/09 13:14:26;;;;;;;2.70;1.90;;;;;;;;;;5034364;28;20423;-45
2022/04/09 13:16:53;;;;;;;8.33;2.23;;;;;;;;;;5034725;28;20428;-47
2022/04/09 13:19:19;;;;;;;2.97;1.47;;;;;;;;;;5034646;28;20410;-47
2022/04/09 13:21:45;;;;;;;2.00;1.70;;;;;;;;;;5034497;28;20424;-48
2022/04/09 13:24:11;;;;;;;6.57;2.30;;;;;;;;;;5034341;28;20791;-47
2022/04/09 13:26:37;;;;;;;6.10;2.10;;;;;;;;;;5034854;28;20410;-49
2022/04/09 13:29:04;;;;;;;3.80;2.60;;;;;;;;;;5034642;28;20963;-49
2022/04/09 13:31:31;;;;;;;4.67;2.10;;;;;;;;;;5034117;28;20454;-47
2022/04/09 13:34:00;;;;;;;6.63;2.47;;;;;;;;;;5034464;28;20503;-46
2022/04/09 13:36:26;;;;;;;4.23;1.70;;;;;;;;;;5034146;28;20529;-49
2022/04/09 13:38:52;;;;;;;2.83;1.60;;;;;;;;;;5034365;28;20404;-52
2022/04/09 13:41:18;;;;;;;2.33;1.90;;;;;;;;;;5041566;28;20427;-52
2022/04/09 13:43:44;;;;;;;2.33;1.60;;;;;;;;;;5053936;28;20429;-49
2022/04/09 13:46:10;;;;;;;2.90;1.40;;;;;;;;;;5044626;28;21138;-51
2022/04/09 13:48:36;;;;;;;3.97;1.70;;;;;;;;;;5034274;28;20440;-50
2022/04/09 13:51:02;;;;;;;4.80;1.80;;;;;;;;;;5032880;28;20500;-49
2022/04/09 13:53:28;;;;;;;2.50;1.57;;;;;;;;;;5023795;28;20438;-50
2022/04/09 13:55:54;;;;;;;2.90;1.60;;;;;;;;;;5030729;28;20410;-46
2022/04/09 13:58:20;;;;;;;4.50;1.73;;;;;;;;;;5033533;28;20464;-47
2022/04/09 14:00:48;;;;;;;3.80;2.20;;;;;;;;;;5033435;28;20389;-47
2022/04/09 14:03:14;;;;;;;2.47;2.23;;;;;;;;;;5030974;28;20436;-47
2022/04/09 14:05:40;;;;;;;1.70;1.53;;;;;;;;;;5033927;28;20494;-46
2022/04/09 14:08:06;;;;;;;3.13;1.93;;;;;;;;;;5033589;28;20390;-46
2022/04/09 14:10:32;;;;;;;2.30;1.50;;;;;;;;;;5033046;28;20404;-46
2022/04/09 14:12:58;;;;;;;2.73;1.90;;;;;;;;;;5033111;28;20453;-47
2022/04/09 14:15:24;;;;;;;4.60;1.50;;;;;;;;;;5033321;28;20407;-52
2022/04/09 14:17:51;;;;;;;3.20;2.53;;;;;;;;;;5033521;28;20403;-52
2022/04/09 14:20:17;;;;;;;3.40;1.40;;;;;;;;;;5033375;28;20453;-49
2022/04/09 14:22:43;;;;;;;2.00;1.40;;;;;;;;;;5032970;28;20422;-50
2022/04/09 14:25:09;;;;;;;6.17;1.97;;;;;;;;;;5033504;28;20415;-52
2022/04/09 14:27:36;;;;;;;2.93;1.80;;;;;;;;;;5033217;28;20439;-49
2022/04/09 14:30:03;;;;;;;2.67;1.50;;;;;;;;;;5032901;28;20385;-50
2022/04/09 14:32:29;;;;;;;2.17;1.60;;;;;;;;;;5024923;28;20504;-50
2022/04/09 14:34:55;;;;;;;3.03;2.00;;;;;;;;;;5033189;28;20502;-50
2022/04/09 14:37:25;;;;;;;5.77;2.20;;;;;;;;;;5032588;28;20502;-51